Main page
METAR-TAF:

METAR-TAF

Airports :

Göteborg City Airport

Gothenburg, Sweden

latitude: 57-47N, longitude: 011-53E, elevation: 20 m

Current weather observation

The report was made 29 minutes ago, at 16:20 UTC
Wind 1 kt from variable directions
Temperature 18°C
Humidity 59%
Pressure 1013 hPa
Visibility 10 km or more

METAR: ESGP 211620Z AUTO VRB01KT 9999 NCD 18/10 Q1013

Time: 18:49 (16:49 UTC)

Forecast

The report was made 26 hours and 19 minutes ago, at 14:30 UTC
Forecast valid from 20 at 15 UTC to 20 at 17 UTC
Wind 15 kt from the West
Visibility 10 km or more
Broken clouds at a height of 1700 ft
Probability 40%
from 20 at 15 UTC to 20 at 17 UTC
Broken clouds at a height of 1400 ft

TAF: ESGP 201430Z 2015/2017 27015KT 9999 BKN017 PROB40 2015/2017 BKN014

Weather observations and forecasts of more than 4000 airports (METAR and TAF reports).

The available stations are represented by yellow and red dots on the map.

Hover mouse over dot to see the name of the station.

Then click to see weather observations and forecasts.

To change the map : click on the green buttons with a black cross to zoom in, on the green button with a dash to zoom out, or on the green arrows for adjacent maps.


METAR-TAF: